Time;durP1;ratioP1;P1;durP2;ratioP2;P2;SDS_P1;SDS_P2;PMS_P1;PMS_P2;Temp;Humidity;BMP_temperature;BMP_pressure;BME280_temperature;BME280_humidity;BME280_pressure;Samples;Min_cycle;Max_cycle;Signal;HPM_P1;HPM_P2
2020/12/17 00:00:32;;;;;;;24.33;11.95;;;5.90;99.90;;;;;;5020486;28;20577;-81
2020/12/17 00:02:58;;;;;;;29.50;12.38;;;5.90;99.90;;;;;;5018796;28;20056;-81
2020/12/17 00:05:23;;;;;;;25.08;11.60;;;5.90;99.90;;;;;;5001919;28;20033;-82
2020/12/17 00:07:49;;;;;;;22.73;11.98;;;5.90;99.90;;;;;;4999811;28;20041;-82
2020/12/17 00:10:15;;;;;;;25.35;13.18;;;6.00;99.90;;;;;;5016214;28;20038;-82
2020/12/17 00:12:43;;;;;;;21.58;11.73;;;6.00;99.90;;;;;;5018272;28;20045;-81
2020/12/17 00:15:13;;;;;;;20.30;11.68;;;6.00;99.90;;;;;;5006003;28;20065;-81
2020/12/17 00:17:49;;;;;;;23.27;11.57;;;6.00;99.90;;;;;;5014161;28;20100;-81
2020/12/17 00:20:18;;;;;;;22.40;11.18;;;6.00;99.90;;;;;;5022007;28;20510;-81
2020/12/17 00:22:44;;;;;;;25.02;11.30;;;6.00;99.90;;;;;;5020497;28;20163;-82
2020/12/17 00:25:12;;;;;;;23.00;11.77;;;6.00;99.90;;;;;;5005711;28;20037;-81
2020/12/17 00:27:38;;;;;;;29.40;13.65;;;6.00;99.90;;;;;;5012285;28;20114;-82
2020/12/17 00:30:09;;;;;;;23.85;13.80;;;6.00;99.90;;;;;;5017650;28;20029;-81
2020/12/17 00:32:36;;;;;;;30.70;14.07;;;6.00;99.90;;;;;;4998830;28;20038;-80
2020/12/17 00:35:03;;;;;;;28.40;14.18;;;6.00;99.90;;;;;;5016295;28;20541;-81
2020/12/17 00:37:30;;;;;;;30.85;14.38;;;6.00;99.90;;;;;;5004411;28;20026;-80
2020/12/17 00:39:56;;;;;;;29.52;14.15;;;5.90;99.90;;;;;;5002043;28;20037;-81
2020/12/17 00:42:21;;;;;;;28.60;14.30;;;5.90;99.90;;;;;;5018617;28;20041;-80
2020/12/17 00:44:47;;;;;;;26.98;13.82;;;5.90;99.90;;;;;;5018220;28;20079;-81
2020/12/17 00:47:12;;;;;;;27.90;14.55;;;5.90;99.90;;;;;;5014189;28;20034;-82
2020/12/17 00:49:38;;;;;;;31.33;13.35;;;5.80;99.90;;;;;;5013639;28;20119;-81
2020/12/17 00:52:03;;;;;;;24.58;13.30;;;5.80;99.90;;;;;;5008011;28;20026;-81
2020/12/17 00:54:29;;;;;;;24.38;12.80;;;5.70;99.90;;;;;;5015912;28;20041;-82
2020/12/17 00:56:55;;;;;;;24.58;12.43;;;5.70;99.90;;;;;;5019898;28;20045;-82
2020/12/17 00:59:21;;;;;;;27.77;12.80;;;5.60;99.90;;;;;;5019352;28;20033;-80
2020/12/17 01:01:48;;;;;;;27.67;13.45;;;5.50;99.90;;;;;;5018885;28;20037;-82
2020/12/17 01:04:14;;;;;;;23.17;12.63;;;5.50;99.90;;;;;;5017190;28;20096;-81
2020/12/17 01:06:40;;;;;;;23.38;11.93;;;5.60;99.90;;;;;;5017494;28;20041;-82
2020/12/17 01:09:06;;;;;;;21.92;11.98;;;5.60;99.90;;;;;;5021035;28;20419;-82
2020/12/17 01:11:32;;;;;;;24.42;11.85;;;5.50;99.90;;;;;;4997118;28;20470;-81
2020/12/17 01:13:58;;;;;;;20.80;11.20;;;5.60;99.90;;;;;;5001775;28;20070;-79
2020/12/17 01:16:24;;;;;;;23.52;11.63;;;5.50;99.90;;;;;;5003131;28;20038;-81
2020/12/17 01:18:49;;;;;;;23.98;11.55;;;5.50;99.90;;;;;;5026595;28;20611;-80
2020/12/17 01:21:16;;;;;;;19.42;10.45;;;5.50;99.90;;;;;;5026179;28;20045;-81
2020/12/17 01:23:41;;;;;;;19.38;11.25;;;5.50;99.90;;;;;;5014480;28;20595;-80
2020/12/17 01:26:10;;;;;;;19.83;10.98;;;5.50;99.90;;;;;;5015673;28;20060;-80
2020/12/17 01:28:37;;;;;;;19.10;11.20;;;5.40;99.90;;;;;;4997910;28;20495;-81
2020/12/17 01:31:12;;;;;;;18.40;10.13;;;5.40;99.90;;;;;;5020123;28;20047;-82
2020/12/17 01:33:38;;;;;;;17.02;9.00;;;5.40;99.90;;;;;;5025352;28;20042;-81
2020/12/17 01:36:05;;;;;;;19.77;10.73;;;5.40;99.90;;;;;;5019436;28;20054;-82
2020/12/17 01:38:31;;;;;;;18.52;11.10;;;5.40;99.90;;;;;;5019527;28;20034;-81
2020/12/17 01:40:57;;;;;;;30.67;13.15;;;5.40;99.90;;;;;;4996002;28;20539;-82
2020/12/17 01:43:23;;;;;;;20.25;12.07;;;5.30;99.90;;;;;;5011605;28;20041;-81
2020/12/17 01:45:49;;;;;;;24.80;11.55;;;5.30;99.90;;;;;;5013275;28;20038;-80
2020/12/17 01:48:16;;;;;;;23.33;11.73;;;5.20;99.90;;;;;;5017594;28;20053;-81
2020/12/17 01:50:47;;;;;;;26.63;12.60;;;5.20;99.90;;;;;;5002628;28;20048;-81
2020/12/17 01:53:13;;;;;;;23.42;11.27;;;5.30;99.90;;;;;;5026129;28;20045;-81
2020/12/17 01:55:39;;;;;;;26.80;10.95;;;5.20;99.90;;;;;;5027843;28;20037;-82
2020/12/17 01:58:06;;;;;;;20.50;10.90;;;5.10;99.90;;;;;;5030941;28;20041;-80
2020/12/17 02:00:36;;;;;;;22.05;10.68;;;5.10;99.90;;;;;;5027196;28;20045;-80
2020/12/17 02:03:04;;;;;;;19.15;10.73;;;5.00;99.90;;;;;;5023653;28;20042;-79
2020/12/17 02:05:30;;;;;;;19.75;11.35;;;5.00;99.90;;;;;;5003494;28;20046;-82
2020/12/17 02:08:00;;;;;;;24.05;11.82;;;5.00;99.90;;;;;;4994439;28;20049;-80
2020/12/17 02:10:27;;;;;;;24.65;11.55;;;5.00;99.90;;;;;;5032844;28;20034;-80
2020/12/17 02:12:53;;;;;;;20.45;10.50;;;5.00;99.90;;;;;;5015247;28;20061;-82
2020/12/17 02:15:20;;;;;;;20.73;11.27;;;5.00;99.90;;;;;;5035482;28;20037;-80
2020/12/17 02:17:49;;;;;;;17.38;9.82;;;5.00;99.90;;;;;;5013694;28;20046;-81
2020/12/17 02:20:15;;;;;;;19.27;10.77;;;5.10;99.90;;;;;;5032407;28;20045;-80
2020/12/17 02:22:41;;;;;;;16.10;8.77;;;5.00;99.90;;;;;;5030493;28;20408;-81
2020/12/17 02:25:12;;;;;;;15.65;8.88;;;5.20;99.90;;;;;;5027992;28;20121;-81
2020/12/17 02:27:38;;;;;;;18.52;10.13;;;5.20;99.90;;;;;;5026001;28;20042;-82
2020/12/17 02:30:06;;;;;;;18.67;8.77;;;5.20;99.90;;;;;;5007355;28;20033;-82
2020/12/17 02:32:32;;;;;;;16.33;8.63;;;5.20;99.90;;;;;;5007192;28;20048;-80
2020/12/17 02:34:57;;;;;;;15.70;9.00;;;5.20;99.90;;;;;;5028564;28;20113;-82
2020/12/17 02:37:23;;;;;;;17.88;9.27;;;5.30;99.90;;;;;;5031454;28;20141;-80
2020/12/17 02:39:49;;;;;;;17.30;8.52;;;5.40;99.90;;;;;;5042491;28;20033;-80
2020/12/17 02:42:14;;;;;;;14.40;8.52;;;5.40;99.90;;;;;;5040907;28;20172;-80
2020/12/17 02:44:40;;;;;;;17.38;8.65;;;5.40;99.90;;;;;;5038394;28;20098;-82
2020/12/17 02:47:06;;;;;;;12.93;7.88;;;5.50;99.90;;;;;;5017465;28;20631;-81
2020/12/17 02:49:31;;;;;;;23.35;8.38;;;5.50;99.90;;;;;;5032297;28;20040;-80
2020/12/17 02:51:57;;;;;;;14.88;8.15;;;5.60;99.90;;;;;;5031201;28;20034;-81
2020/12/17 02:54:22;;;;;;;14.77;8.10;;;5.60;99.90;;;;;;5024077;28;20041;-82
2020/12/17 02:56:48;;;;;;;15.07;8.55;;;5.60;99.90;;;;;;5020181;28;20121;-78
2020/12/17 02:59:13;;;;;;;15.82;8.77;;;5.60;99.90;;;;;;5027884;28;20076;-78
2020/12/17 03:01:39;;;;;;;17.50;8.98;;;5.60;99.90;;;;;;5035428;28;20096;-78
2020/12/17 03:04:04;;;;;;;16.80;8.57;;;5.60;99.90;;;;;;5031761;28;20041;-79
2020/12/17 03:06:31;;;;;;;14.32;7.72;;;5.50;99.90;;;;;;5024821;28;20369;-79
2020/12/17 03:08:57;;;;;;;13.57;7.78;;;5.50;99.90;;;;;;5031106;28;20054;-79
2020/12/17 03:11:22;;;;;;;13.02;7.00;;;5.40;99.90;;;;;;5033469;28;20038;-80
2020/12/17 03:13:48;;;;;;;14.45;8.10;;;5.40;99.90;;;;;;5040545;28;20033;-81
2020/12/17 03:16:14;;;;;;;21.13;8.15;;;5.40;99.90;;;;;;5038435;28;20057;-78
2020/12/17 03:18:39;;;;;;;17.75;8.82;;;5.40;99.90;;;;;;5027699;28;20061;-79
2020/12/17 03:21:05;;;;;;;21.38;8.60;;;5.50;99.90;;;;;;5039737;28;20070;-78
2020/12/17 03:23:30;;;;;;;17.17;8.95;;;5.50;99.90;;;;;;5038178;28;20040;-79
2020/12/17 03:25:56;;;;;;;13.05;7.55;;;5.50;99.90;;;;;;5036359;28;20048;-78
2020/12/17 03:28:21;;;;;;;14.10;8.52;;;5.50;99.90;;;;;;5037427;28;20057;-79
2020/12/17 03:30:47;;;;;;;17.88;8.65;;;5.50;99.90;;;;;;5031694;28;20038;-79
2020/12/17 03:33:12;;;;;;;16.98;8.23;;;5.60;99.90;;;;;;5041178;28;20057;-78
2020/12/17 03:35:38;;;;;;;18.13;7.97;;;5.60;99.90;;;;;;5027736;28;20065;-78
2020/12/17 03:38:03;;;;;;;13.95;7.63;;;5.50;99.90;;;;;;5015111;28;20105;-79
2020/12/17 03:40:29;;;;;;;15.65;8.77;;;5.50;99.90;;;;;;5025218;28;20065;-82
2020/12/17 03:42:55;;;;;;;14.50;7.75;;;5.50;99.90;;;;;;5015086;28;20272;-80
2020/12/17 03:45:21;;;;;;;12.73;7.47;;;5.50;99.90;;;;;;5019670;28;20064;-79
2020/12/17 03:47:47;;;;;;;15.60;7.85;;;5.50;99.90;;;;;;5015613;28;20030;-81
2020/12/17 03:50:13;;;;;;;12.38;7.25;;;5.40;99.90;;;;;;5014522;28;20103;-82
2020/12/17 03:52:39;;;;;;;12.13;7.10;;;5.40;99.90;;;;;;5022415;28;20077;-80
2020/12/17 03:55:05;;;;;;;11.57;7.30;;;5.30;99.90;;;;;;5018158;28;20030;-80
2020/12/17 03:57:31;;;;;;;14.40;8.38;;;5.30;99.90;;;;;;4998918;28;20033;-82
2020/12/17 03:59:56;;;;;;;14.43;7.80;;;5.20;99.90;;;;;;5019372;28;20071;-81
2020/12/17 04:02:22;;;;;;;13.82;7.95;;;5.20;99.90;;;;;;5001907;28;20036;-81
2020/12/17 04:04:48;;;;;;;13.55;8.07;;;5.20;99.90;;;;;;5019721;28;20045;-81
2020/12/17 04:07:15;;;;;;;14.98;7.95;;;5.10;99.90;;;;;;4996932;28;20034;-81
2020/12/17 04:09:41;;;;;;;17.17;8.55;;;5.00;99.90;;;;;;5017387;28;20033;-81
2020/12/17 04:12:06;;;;;;;14.15;8.30;;;5.00;99.90;;;;;;5016708;28;20068;-80
2020/12/17 04:14:32;;;;;;;15.52;8.02;;;4.90;99.90;;;;;;5018946;28;20041;-81
2020/12/17 04:16:58;;;;;;;12.98;7.97;;;4.80;99.90;;;;;;5017357;28;20033;-80
2020/12/17 04:19:23;;;;;;;20.65;7.80;;;4.80;99.90;;;;;;5017743;28;20038;-81
2020/12/17 04:21:49;;;;;;;15.32;7.82;;;4.90;99.90;;;;;;5017920;28;20045;-81
2020/12/17 04:24:15;;;;;;;15.40;7.97;;;4.90;99.90;;;;;;5019043;28;20094;-81
2020/12/17 04:26:40;;;;;;;19.20;8.25;;;5.00;99.90;;;;;;5019316;28;20038;-81
2020/12/17 04:29:06;;;;;;;23.05;8.93;;;5.10;99.90;;;;;;5018536;28;20045;-81
2020/12/17 04:31:31;;;;;;;12.73;8.20;;;5.10;99.90;;;;;;4997813;28;20045;-81
2020/12/17 04:33:57;;;;;;;13.88;8.32;;;5.10;99.90;;;;;;5019237;28;20523;-80
2020/12/17 04:36:24;;;;;;;14.10;8.05;;;5.10;99.90;;;;;;5014862;28;20088;-80
2020/12/17 04:38:50;;;;;;;16.45;9.18;;;5.10;99.90;;;;;;5016365;28;20172;-81
2020/12/17 04:41:18;;;;;;;16.83;9.15;;;5.10;99.90;;;;;;5015476;28;20042;-81
2020/12/17 04:43:45;;;;;;;20.63;9.32;;;5.10;99.90;;;;;;4994998;28;20038;-81
2020/12/17 04:46:14;;;;;;;15.25;8.90;;;5.00;99.90;;;;;;5014535;28;20042;-80
2020/12/17 04:48:42;;;;;;;17.48;8.95;;;5.00;99.90;;;;;;4999538;28;20522;-81
2020/12/17 04:51:08;;;;;;;20.33;9.82;;;5.10;99.90;;;;;;5017000;28;20080;-79
2020/12/17 04:53:36;;;;;;;18.30;9.52;;;5.20;99.90;;;;;;5013461;28;20037;-81
2020/12/17 04:56:02;;;;;;;16.25;8.98;;;5.20;99.90;;;;;;5009961;28;20034;-81
2020/12/17 04:58:31;;;;;;;23.95;11.05;;;5.20;99.90;;;;;;5017075;28;20045;-81
2020/12/17 05:00:57;;;;;;;18.55;9.98;;;5.30;99.90;;;;;;5017126;28;20642;-81
2020/12/17 05:03:23;;;;;;;18.40;10.57;;;5.20;99.90;;;;;;5015393;28;20124;-82
2020/12/17 05:05:53;;;;;;;18.10;9.75;;;5.30;99.90;;;;;;5018066;28;20040;-80
2020/12/17 05:08:22;;;;;;;22.08;9.43;;;5.30;99.90;;;;;;5017055;28;20644;-81
2020/12/17 05:10:48;;;;;;;14.80;8.77;;;5.30;99.90;;;;;;5022776;28;20778;-80
2020/12/17 05:13:16;;;;;;;17.58;9.25;;;5.30;99.90;;;;;;5020914;28;20061;-82
2020/12/17 05:15:43;;;;;;;18.30;9.32;;;5.30;99.90;;;;;;5019146;28;20069;-80
2020/12/17 05:18:08;;;;;;;16.30;9.40;;;5.30;99.90;;;;;;5012939;28;20045;-81
2020/12/17 05:20:36;;;;;;;18.48;10.00;;;5.30;99.90;;;;;;5020336;28;20120;-81
2020/12/17 05:23:04;;;;;;;17.90;9.88;;;5.30;99.90;;;;;;5001307;28;20036;-81
2020/12/17 05:25:30;;;;;;;21.80;9.82;;;5.30;99.90;;;;;;5030089;28;20653;-79
2020/12/17 05:27:56;;;;;;;16.88;9.60;;;5.30;99.90;;;;;;5020548;28;20140;-79
2020/12/17 05:30:33;;;;;;;22.50;10.43;;;5.20;99.90;;;;;;5016674;28;20121;-79
2020/12/17 05:33:00;;;;;;;18.75;9.88;;;5.30;99.90;;;;;;5021870;28;20526;-80
2020/12/17 05:35:34;;;;;;;21.95;10.25;;;5.30;99.90;;;;;;5020063;28;20104;-80
2020/12/17 05:38:01;;;;;;;;;;;5.40;99.90;;;;;;5019063;28;20699;-81
2020/12/17 05:40:26;;;;;;;18.70;9.57;;;5.40;99.90;;;;;;5005676;28;19920;-81
2020/12/17 05:42:53;;;;;;;17.02;9.77;;;5.40;99.90;;;;;;5016817;28;20038;-79
2020/12/17 05:45:25;;;;;;;17.30;9.52;;;5.30;99.90;;;;;;5024089;28;20409;-81
2020/12/17 05:48:14;;;;;;;17.63;9.57;;;5.40;99.90;;;;;;5019573;28;20495;-81
2020/12/17 05:50:53;;;;;;;19.85;10.15;;;5.40;99.90;;;;;;5009948;28;20038;-81
2020/12/17 05:53:20;;;;;;;16.70;8.70;;;5.40;99.90;;;;;;5018094;28;20038;-82
2020/12/17 05:55:47;;;;;;;17.92;9.45;;;5.40;99.90;;;;;;5022051;28;20156;-83
2020/12/17 05:58:14;;;;;;;17.83;9.27;;;5.30;99.90;;;;;;5022524;28;20056;-82
2020/12/17 06:00:39;;;;;;;17.80;9.18;;;5.30;99.90;;;;;;5020488;28;20128;-82
2020/12/17 06:03:12;;;;;;;19.92;10.27;;;5.30;99.90;;;;;;5019241;28;20113;-79
2020/12/17 06:05:43;;;;;;;17.90;10.00;;;5.30;99.90;;;;;;5028483;28;20060;-83
2020/12/17 06:08:15;;;;;;;14.77;8.52;;;5.30;99.90;;;;;;5022020;28;20037;-81
2020/12/17 06:10:47;;;;;;;18.30;9.23;;;5.40;99.90;;;;;;5001886;28;20656;-82
2020/12/17 06:13:15;;;;;;;18.67;9.90;;;5.40;99.90;;;;;;5024701;28;20408;-82
2020/12/17 06:15:43;;;;;;;18.27;10.25;;;5.40;99.90;;;;;;5024315;28;20033;-81
2020/12/17 06:18:11;;;;;;;17.27;9.65;;;5.40;99.90;;;;;;5024473;28;20288;-80
2020/12/17 06:20:37;;;;;;;22.17;9.02;;;5.40;99.90;;;;;;5024457;28;20115;-81
2020/12/17 06:23:06;;;;;;;16.55;9.25;;;5.40;99.90;;;;;;5032012;28;20045;-81
2020/12/17 06:25:33;;;;;;;16.90;8.65;;;5.40;99.90;;;;;;5032769;28;20048;-81
2020/12/17 06:27:59;;;;;;;18.63;9.63;;;5.50;99.90;;;;;;5037170;28;20053;-80
2020/12/17 06:30:29;;;;;;;16.23;9.13;;;5.70;99.90;;;;;;5038958;28;20150;-78
2020/12/17 06:32:57;;;;;;;17.08;8.73;;;5.60;99.90;;;;;;5037440;28;20037;-80
2020/12/17 06:35:29;;;;;;;16.58;9.10;;;5.60;99.90;;;;;;5033651;28;20044;-82
2020/12/17 06:38:06;;;;;;;17.27;9.27;;;5.50;99.90;;;;;;5022296;28;20048;-82
2020/12/17 06:40:32;;;;;;;24.05;8.90;;;5.50;99.90;;;;;;5018589;28;20619;-82
2020/12/17 06:42:58;;;;;;;16.33;7.85;;;5.60;99.90;;;;;;5021981;28;20105;-82
2020/12/17 06:45:25;;;;;;;15.43;8.38;;;5.60;99.90;;;;;;5014036;28;20140;-81
2020/12/17 06:47:51;;;;;;;15.07;8.65;;;5.50;99.90;;;;;;5019875;28;20095;-82
2020/12/17 06:50:28;;;;;;;14.15;7.45;;;5.50;99.90;;;;;;5009650;28;20041;-83
2020/12/17 06:53:11;;;;;;;12.48;7.50;;;5.50;99.90;;;;;;5009678;28;20041;-78
2020/12/17 06:55:44;;;;;;;15.85;7.88;;;5.50;99.90;;;;;;5013387;28;20057;-82
2020/12/17 06:58:20;;;;;;;13.45;7.47;;;5.50;99.90;;;;;;5017871;28;20065;-80
2020/12/17 07:00:47;;;;;;;15.48;7.45;;;5.50;99.90;;;;;;5012889;28;20042;-82
2020/12/17 07:03:51;;;;;;;12.05;7.05;;;5.60;99.90;;;;;;5012655;28;20105;-81
2020/12/17 07:06:24;;;;;;;12.10;6.85;;;5.50;99.90;;;;;;5010399;28;20567;-82
2020/12/17 07:08:55;;;;;;;21.65;6.75;;;5.50;99.90;;;;;;5015488;28;20052;-80
2020/12/17 07:11:33;;;;;;;12.07;6.95;;;5.40;99.90;;;;;;5010420;28;20030;-81
2020/12/17 07:13:59;;;;;;;12.05;6.20;;;5.50;99.90;;;;;;5017406;28;20077;-79
2020/12/17 07:16:26;;;;;;;10.40;5.60;;;5.40;99.90;;;;;;5012473;28;20140;-82
2020/12/17 07:18:52;;;;;;;9.73;5.65;;;5.50;99.90;;;;;;5021325;28;20125;-80
2020/12/17 07:21:26;;;;;;;11.65;5.53;;;5.50;99.90;;;;;;5014934;28;20128;-81
2020/12/17 07:23:52;;;;;;;14.38;6.93;;;5.60;99.90;;;;;;4999391;28;20362;-82
2020/12/17 07:26:18;;;;;;;10.57;5.88;;;5.70;99.90;;;;;;5019148;28;20120;-80
2020/12/17 07:28:52;;;;;;;9.98;5.57;;;5.70;99.90;;;;;;5016468;28;20626;-80
2020/12/17 07:31:25;;;;;;;11.70;5.55;;;5.70;99.90;;;;;;5022949;28;20037;-79
2020/12/17 07:33:52;;;;;;;11.55;5.32;;;5.70;99.90;;;;;;5003702;28;20042;-81
2020/12/17 07:36:17;;;;;;;10.00;4.78;;;5.70;99.90;;;;;;5024135;28;20117;-81
2020/12/17 07:38:43;;;;;;;8.38;4.22;;;5.70;99.90;;;;;;5026897;28;20054;-79
2020/12/17 07:41:26;;;;;;;11.40;4.25;;;5.80;99.90;;;;;;5028954;28;20595;-81
2020/12/17 07:43:52;;;;;;;7.50;4.15;;;5.90;99.90;;;;;;5022873;28;20042;-83
2020/12/17 07:46:34;;;;;;;8.50;4.57;;;5.80;99.90;;;;;;5016449;28;20034;-81
2020/12/17 07:49:02;;;;;;;8.48;4.25;;;5.80;99.90;;;;;;5013182;28;20034;-81
2020/12/17 07:51:28;;;;;;;8.48;4.45;;;5.80;99.90;;;;;;5023158;28;20049;-82
2020/12/17 07:53:53;;;;;;;22.98;4.82;;;5.80;99.90;;;;;;5023005;28;20504;-83
2020/12/17 07:56:20;;;;;;;9.40;4.35;;;5.90;99.90;;;;;;5016284;28;20059;-83
2020/12/17 07:58:46;;;;;;;6.55;3.90;;;5.90;99.90;;;;;;5002374;28;20091;-81
2020/12/17 08:01:13;;;;;;;12.18;3.85;;;5.90;99.90;;;;;;5015054;28;20064;-81
2020/12/17 08:03:50;;;;;;;12.68;4.25;;;5.90;99.90;;;;;;5029227;28;20239;-79
2020/12/17 08:06:21;;;;;;;8.15;3.80;;;6.00;99.90;;;;;;5002274;28;20119;-83
2020/12/17 08:08:52;;;;;;;5.88;3.05;;;6.20;99.90;;;;;;5019621;28;20057;-79
2020/12/17 08:11:17;;;;;;;7.40;3.90;;;6.40;99.90;;;;;;5005696;28;20080;-81
2020/12/17 08:13:43;;;;;;;11.70;3.60;;;6.60;99.90;;;;;;5019944;28;20064;-80
2020/12/17 08:16:08;;;;;;;5.55;3.47;;;6.60;99.90;;;;;;5012634;28;20034;-80
2020/12/17 08:18:36;;;;;;;8.82;3.00;;;6.70;99.90;;;;;;5015858;28;20092;-81
2020/12/17 08:21:07;;;;;;;5.82;2.90;;;6.70;99.90;;;;;;5018311;28;20046;-81
2020/12/17 08:23:37;;;;;;;6.93;3.20;;;6.80;99.90;;;;;;5015728;28;20041;-82
2020/12/17 08:26:05;;;;;;;3.88;2.70;;;6.90;99.90;;;;;;5000276;28;21208;-79
2020/12/17 08:28:33;;;;;;;7.20;3.17;;;6.90;99.90;;;;;;5000574;28;20034;-80
2020/12/17 08:31:14;;;;;;;9.75;3.40;;;7.00;99.90;;;;;;5027229;28;20506;-80
2020/12/17 08:33:45;;;;;;;6.00;3.17;;;7.10;99.90;;;;;;5025061;28;20721;-81
2020/12/17 08:36:13;;;;;;;6.38;3.22;;;7.20;99.90;;;;;;5022889;28;20037;-80
2020/12/17 08:38:40;;;;;;;16.60;2.97;;;7.20;99.90;;;;;;5019681;28;20507;-81
2020/12/17 08:41:08;;;;;;;10.10;3.30;;;7.20;99.90;;;;;;5001488;28;20123;-82
2020/12/17 08:43:48;;;;;;;7.00;3.70;;;7.30;99.90;;;;;;5020362;28;20088;-81
2020/12/17 08:46:15;;;;;;;4.53;2.88;;;7.30;99.90;;;;;;5022341;28;20038;-80
2020/12/17 08:48:42;;;;;;;5.05;2.92;;;7.40;99.90;;;;;;5019190;28;20075;-81
2020/12/17 08:51:15;;;;;;;6.90;2.78;;;7.40;99.90;;;;;;5022979;28;20283;-79
2020/12/17 08:53:42;;;;;;;5.35;3.00;;;7.40;99.90;;;;;;5029957;28;20041;-80
2020/12/17 08:56:12;;;;;;;9.43;3.05;;;7.50;99.90;;;;;;5012723;28;20042;-80
2020/12/17 08:59:03;;;;;;;6.78;3.30;;;7.60;99.90;;;;;;5029135;28;20053;-81
2020/12/17 09:01:35;;;;;;;5.25;2.97;;;7.70;99.90;;;;;;5020242;28;20108;-80
2020/12/17 09:04:06;;;;;;;3.90;2.45;;;7.80;99.90;;;;;;5013955;28;20045;-78
2020/12/17 09:06:33;;;;;;;6.38;3.55;;;7.90;99.90;;;;;;5028460;28;20120;-78
2020/12/17 09:09:27;;;;;;;6.53;3.08;;;7.90;99.90;;;;;;5009796;28;20042;-79
2020/12/17 09:11:54;;;;;;;6.67;2.80;;;7.90;99.90;;;;;;5010996;28;20038;-79
2020/12/17 09:14:27;;;;;;;7.55;2.78;;;8.00;99.90;;;;;;4999956;28;20268;-82
2020/12/17 09:16:53;;;;;;;9.20;3.38;;;8.10;99.90;;;;;;5021200;28;20033;-79
2020/12/17 09:19:18;;;;;;;6.25;2.70;;;8.00;99.70;;;;;;5016232;28;20158;-80
2020/12/17 09:21:58;;;;;;;9.15;3.13;;;8.00;98.80;;;;;;5026959;28;20064;-79
2020/12/17 09:24:40;;;;;;;7.45;3.30;;;7.90;98.80;;;;;;5000511;28;20057;-79
2020/12/17 09:27:17;;;;;;;7.38;3.75;;;7.90;98.70;;;;;;5017503;28;20511;-79
2020/12/17 09:29:57;;;;;;;5.13;3.15;;;7.80;99.00;;;;;;5018157;28;20526;-80
2020/12/17 09:32:22;;;;;;;5.80;3.63;;;7.80;98.80;;;;;;5018098;28;20163;-80
2020/12/17 09:34:48;;;;;;;14.60;3.47;;;7.70;99.00;;;;;;5022658;28;20083;-80
2020/12/17 09:37:13;;;;;;;6.65;3.35;;;7.70;99.30;;;;;;5018512;28;20038;-81
2020/12/17 09:39:44;;;;;;;8.38;3.47;;;7.70;98.90;;;;;;4997985;28;20656;-80
2020/12/17 09:42:15;;;;;;;8.82;3.90;;;7.70;99.30;;;;;;4999949;28;20041;-79
2020/12/17 09:44:41;;;;;;;10.68;3.80;;;7.60;99.70;;;;;;4999033;28;20053;-80
2020/12/17 09:47:07;;;;;;;6.55;3.50;;;7.60;99.70;;;;;;4990252;28;20030;-81
2020/12/17 09:49:35;;;;;;;10.35;4.13;;;7.60;99.60;;;;;;4992333;28;20524;-80
2020/12/17 09:52:02;;;;;;;6.75;3.45;;;7.70;99.70;;;;;;4996648;28;20405;-81
2020/12/17 09:54:27;;;;;;;7.13;3.28;;;7.70;99.60;;;;;;5003760;28;20056;-81
2020/12/17 09:57:11;;;;;;;9.40;3.58;;;7.70;99.80;;;;;;5014147;28;20031;-78
2020/12/17 09:59:38;;;;;;;9.80;4.67;;;7.80;99.90;;;;;;5019718;28;20034;-78
2020/12/17 10:02:05;;;;;;;11.95;4.32;;;7.80;99.90;;;;;;5016078;28;20041;-81
2020/12/17 10:04:31;;;;;;;8.00;3.85;;;7.80;99.90;;;;;;5031373;28;20046;-77
2020/12/17 10:06:57;;;;;;;10.23;4.22;;;7.90;99.90;;;;;;5039867;28;20028;-79
2020/12/17 10:09:23;;;;;;;8.15;3.97;;;8.00;99.90;;;;;;5034319;28;20049;-81
2020/12/17 10:11:49;;;;;;;10.05;3.70;;;8.10;99.90;;;;;;5027976;28;20045;-81
2020/12/17 10:14:16;;;;;;;7.22;3.45;;;8.20;99.80;;;;;;5017774;28;20404;-79
2020/12/17 10:16:41;;;;;;;7.68;3.45;;;8.50;99.10;;;;;;5023361;28;20044;-80
2020/12/17 10:19:08;;;;;;;6.50;3.20;;;8.70;98.80;;;;;;5021097;28;20041;-80
2020/12/17 10:21:34;;;;;;;6.57;3.15;;;8.90;98.40;;;;;;5028101;28;20066;-81
2020/12/17 10:23:59;;;;;;;8.43;3.30;;;9.00;98.20;;;;;;5024431;28;20049;-80
2020/12/17 10:26:25;;;;;;;7.00;3.30;;;9.00;97.50;;;;;;5023630;28;20045;-81
2020/12/17 10:28:50;;;;;;;6.63;3.45;;;9.20;97.20;;;;;;5026617;28;20042;-80
2020/12/17 10:31:16;;;;;;;8.85;3.47;;;9.20;96.10;;;;;;5028116;28;20033;-82
2020/12/17 10:33:41;;;;;;;7.43;3.28;;;9.30;96.00;;;;;;5026863;28;20030;-80
2020/12/17 10:36:07;;;;;;;9.57;3.80;;;9.30;95.50;;;;;;5025530;28;20119;-81
2020/12/17 10:38:32;;;;;;;18.35;3.45;;;9.30;95.10;;;;;;5026505;28;20066;-81
2020/12/17 10:40:58;;;;;;;6.65;3.40;;;9.30;94.90;;;;;;5025928;28;20052;-80
2020/12/17 10:43:23;;;;;;;13.02;4.13;;;9.30;94.70;;;;;;5023939;28;20036;-80
2020/12/17 10:45:49;;;;;;;7.28;3.35;;;9.40;94.90;;;;;;5023186;28;20180;-80
2020/12/17 10:48:15;;;;;;;18.20;3.33;;;9.40;94.50;;;;;;5020760;28;20563;-80
2020/12/17 10:50:40;;;;;;;7.28;3.92;;;9.40;94.80;;;;;;5027479;28;20030;-79
2020/12/17 10:53:06;;;;;;;9.52;3.53;;;9.50;94.70;;;;;;5018277;28;20909;-79
2020/12/17 10:55:31;;;;;;;8.73;3.33;;;9.60;94.60;;;;;;5013456;28;20046;-79
2020/12/17 10:57:57;;;;;;;6.70;3.17;;;9.60;94.50;;;;;;5020341;28;20042;-81
2020/12/17 11:00:22;;;;;;;7.93;3.78;;;9.80;93.90;;;;;;5024347;28;20457;-80
2020/12/17 11:02:48;;;;;;;7.35;3.28;;;9.80;93.80;;;;;;5015684;28;20054;-79
2020/12/17 11:05:13;;;;;;;8.20;3.45;;;9.90;93.40;;;;;;5021431;28;20688;-81
2020/12/17 11:07:39;;;;;;;10.57;3.60;;;10.10;92.80;;;;;;5021400;28;20099;-82
2020/12/17 11:10:04;;;;;;;8.57;3.88;;;10.30;92.30;;;;;;5014899;28;20084;-79
2020/12/17 11:12:31;;;;;;;10.73;3.13;;;10.30;92.20;;;;;;5020188;28;20564;-78
2020/12/17 11:14:56;;;;;;;6.68;3.00;;;10.40;91.80;;;;;;5025355;28;20033;-78
2020/12/17 11:17:22;;;;;;;6.32;2.70;;;10.50;91.70;;;;;;5013233;28;20038;-80
2020/12/17 11:19:47;;;;;;;12.98;3.08;;;10.50;91.80;;;;;;5014736;28;20026;-80
2020/12/17 11:22:13;;;;;;;7.78;3.60;;;10.50;91.50;;;;;;5025628;28;20042;-80
2020/12/17 11:24:39;;;;;;;5.15;2.83;;;10.50;91.70;;;;;;5027825;28;20049;-80
2020/12/17 11:27:04;;;;;;;12.73;4.15;;;10.60;91.70;;;;;;5025006;28;20053;-78
2020/12/17 11:29:30;;;;;;;6.43;2.70;;;10.60;91.40;;;;;;5035984;28;20042;-78
2020/12/17 11:31:56;;;;;;;6.40;3.17;;;10.60;91.60;;;;;;5028088;28;20030;-79
2020/12/17 11:34:21;;;;;;;6.95;3.65;;;10.60;92.10;;;;;;5021157;28;20038;-82
2020/12/17 11:36:47;;;;;;;11.63;3.60;;;10.60;91.10;;;;;;5023997;28;20431;-81
2020/12/17 11:39:13;;;;;;;9.40;3.58;;;10.60;90.90;;;;;;5020286;28;20042;-79
2020/12/17 11:41:39;;;;;;;8.05;3.50;;;10.60;90.90;;;;;;5022751;28;20045;-79
2020/12/17 11:44:05;;;;;;;9.00;2.88;;;10.60;91.20;;;;;;5003677;28;20566;-78
2020/12/17 11:46:30;;;;;;;6.70;3.00;;;10.70;91.50;;;;;;5001431;28;20047;-79
2020/12/17 11:48:56;;;;;;;11.73;2.70;;;10.70;91.90;;;;;;5002520;28;20129;-80
2020/12/17 11:51:22;;;;;;;7.60;2.60;;;10.90;90.80;;;;;;5004317;28;20137;-81
2020/12/17 11:53:47;;;;;;;6.78;2.80;;;11.00;90.80;;;;;;5003870;28;20035;-79
2020/12/17 11:56:13;;;;;;;13.48;3.10;;;11.10;91.20;;;;;;5009088;28;20041;-79
2020/12/17 11:58:40;;;;;;;11.43;2.88;;;11.20;89.30;;;;;;5021860;28;20068;-81
2020/12/17 12:01:06;;;;;;;5.55;2.53;;;11.20;89.30;;;;;;5023713;28;20041;-80
2020/12/17 12:03:31;;;;;;;8.00;2.60;;;11.30;89.80;;;;;;5015579;28;20433;-80
2020/12/17 12:05:57;;;;;;;11.98;2.67;;;11.30;90.40;;;;;;5020656;28;20030;-79
2020/12/17 12:08:22;;;;;;;7.35;2.45;;;11.20;90.10;;;;;;5014489;28;20026;-81
2020/12/17 12:10:49;;;;;;;10.52;3.00;;;11.30;90.20;;;;;;5016483;28;20097;-78
2020/12/17 12:13:15;;;;;;;7.05;3.33;;;11.20;91.20;;;;;;5016591;28;20029;-81
2020/12/17 12:15:41;;;;;;;6.63;2.90;;;11.10;90.40;;;;;;5019512;28;20037;-81
2020/12/17 12:18:06;;;;;;;6.85;2.92;;;11.00;90.70;;;;;;5015971;28;20046;-80
2020/12/17 12:20:32;;;;;;;9.00;2.78;;;10.90;90.50;;;;;;5015268;28;20524;-80
2020/12/17 12:22:59;;;;;;;9.85;3.60;;;10.90;90.60;;;;;;5008499;28;20346;-79
2020/12/17 12:25:25;;;;;;;7.45;3.20;;;10.90;90.50;;;;;;5025392;28;20038;-81
2020/12/17 12:27:50;;;;;;;5.47;2.80;;;11.00;90.50;;;;;;5024871;28;20052;-81
2020/12/17 12:30:16;;;;;;;6.75;3.22;;;11.00;90.30;;;;;;5017609;28;20413;-80
2020/12/17 12:32:41;;;;;;;7.70;3.03;;;11.10;90.30;;;;;;5021857;28;20045;-80
2020/12/17 12:35:07;;;;;;;8.63;3.45;;;11.10;90.40;;;;;;5001342;28;20029;-81
2020/12/17 12:37:33;;;;;;;11.35;4.10;;;11.10;90.20;;;;;;5023281;28;20037;-80
2020/12/17 12:39:59;;;;;;;10.80;3.97;;;11.00;90.40;;;;;;5020034;28;20037;-82
2020/12/17 12:42:26;;;;;;;10.10;4.00;;;10.90;91.00;;;;;;5006742;28;20132;-81
2020/12/17 12:44:51;;;;;;;6.82;3.72;;;10.80;91.90;;;;;;5002576;28;20841;-81
2020/12/17 12:47:17;;;;;;;9.60;4.85;;;10.80;91.30;;;;;;5022442;28;20132;-81
2020/12/17 12:49:42;;;;;;;9.40;4.68;;;10.70;91.40;;;;;;5020033;28;20048;-79